Time;durP1;ratioP1;P1;durP2;ratioP2;P2;SDS_P1;SDS_P2;PMS_P1;PMS_P2;Temp;Humidity;BMP_temperature;BMP_pressure;BME280_temperature;BME280_humidity;BME280_pressure;Samples;Min_cycle;Max_cycle;Signal;HPM_P1;HPM_P2
2022/05/09 00:01:59;;;;;;;17.83;3.35;;;;;;;33.69;9.35;100381.63;4962741;28;20126;-59
2022/05/09 00:04:27;;;;;;;17.40;3.17;;;;;;;32.38;9.80;100390.91;4965291;28;20035;-58
2022/05/09 00:06:53;;;;;;;19.45;3.35;;;;;;;32.68;10.11;100370.41;4971342;28;20481;-58
2022/05/09 00:09:20;;;;;;;16.52;2.97;;;;;;;32.82;10.50;100375.03;4964414;28;20339;-58
2022/05/09 00:11:47;;;;;;;13.27;3.00;;;;;;;32.91;10.28;100378.13;4964150;28;20062;-58
2022/05/09 00:14:14;;;;;;;13.73;3.47;;;;;;;32.93;11.13;100382.09;4959899;28;20102;-57
2022/05/09 00:16:41;;;;;;;15.93;3.17;;;;;;;31.99;11.75;100397.78;4972602;28;20043;-58
2022/05/09 00:19:10;;;;;;;13.90;3.13;;;;;;;31.47;11.78;100400.69;4962542;28;20026;-58
2022/05/09 00:21:40;;;;;;;15.50;4.13;;;;;;;32.32;11.53;100398.22;4965354;28;20146;-58
2022/05/09 00:24:13;;;;;;;18.88;3.83;;;;;;;32.43;12.00;100416.53;4970172;28;20062;-59
2022/05/09 00:26:46;;;;;;;13.32;3.22;;;;;;;31.97;11.76;100417.09;4959422;28;20053;-58
2022/05/09 00:29:14;;;;;;;13.98;2.88;;;;;;;31.77;11.92;100418.88;4951165;29;20031;-58
2022/05/09 00:31:45;;;;;;;10.98;2.55;;;;;;;31.39;11.88;100434.84;4966707;28;20029;-59
2022/05/09 00:34:17;;;;;;;12.55;3.05;;;;;;;31.42;11.69;100426.41;4960049;28;20095;-58
2022/05/09 00:36:48;;;;;;;18.02;3.28;;;;;;;31.89;11.67;100414.75;4972009;28;20394;-58
2022/05/09 00:39:16;;;;;;;12.85;3.80;;;;;;;30.91;13.70;100415.94;4950925;28;20067;-57
2022/05/09 00:41:44;;;;;;;21.17;5.20;;;;;;;31.22;14.37;100405.69;4964130;28;20094;-58
2022/05/09 00:44:31;;;;;;;30.02;4.22;;;;;;;31.05;13.58;100407.41;4970625;28;20161;-59
2022/05/09 00:46:57;;;;;;;19.98;3.33;;;;;;;30.44;14.41;100406.16;4946503;28;20030;-58
2022/05/09 00:49:27;;;;;;;12.70;3.38;;;;;;;30.75;13.88;100412.84;4966575;28;20043;-58
2022/05/09 00:52:06;;;;;;;12.43;2.97;;;;;;;30.67;14.02;100406.44;4967861;28;20047;-58
2022/05/09 00:54:47;;;;;;;13.05;3.05;;;;;;;30.52;13.45;100413.31;4958768;28;20449;-58
2022/05/09 00:57:33;;;;;;;12.95;3.20;;;;;;;30.64;13.75;100429.72;4967866;28;20043;-58
2022/05/09 01:00:07;;;;;;;15.85;3.80;;;;;;;30.15;14.03;100411.84;4967769;28;20038;-58
2022/05/09 01:02:35;;;;;;;14.98;3.50;;;;;;;29.99;13.91;100414.31;4957421;28;20038;-58
2022/05/09 01:05:02;;;;;;;18.25;3.65;;;;;;;30.02;14.31;100419.91;4961267;28;20066;-58
2022/05/09 01:07:32;;;;;;;22.92;4.10;;;;;;;29.89;14.87;100429.94;4970894;28;20031;-59
2022/05/09 01:09:59;;;;;;;21.95;4.03;;;;;;;30.78;13.96;100424.03;4974946;28;20022;-58
2022/05/09 01:12:33;;;;;;;15.30;3.42;;;;;;;30.28;12.89;100420.63;4958636;28;20074;-59
2022/05/09 01:15:05;;;;;;;11.02;3.05;;;;;;;30.48;12.72;100423.75;4969503;28;20046;-58
2022/05/09 01:17:32;;;;;;;13.13;3.15;;;;;;;29.93;13.88;100432.72;4964701;28;20097;-58
2022/05/09 01:20:00;;;;;;;12.02;2.85;;;;;;;29.37;15.22;100423.94;4961384;28;20166;-58
2022/05/09 01:22:29;;;;;;;8.50;3.63;;;;;;;29.86;15.01;100415.94;4970986;28;20018;-59
2022/05/09 01:25:03;;;;;;;14.40;3.22;;;;;;;29.65;14.09;100444.78;4959786;28;20035;-58
2022/05/09 01:27:31;;;;;;;21.37;3.87;;;;;;;29.38;14.83;100427.53;4964815;28;20130;-59
2022/05/09 01:30:07;;;;;;;17.73;3.50;;;;;;;28.99;15.43;100444.31;4968016;28;20062;-58
2022/05/09 01:32:38;;;;;;;20.27;4.43;;;;;;;28.92;16.17;100431.09;4941430;28;20039;-58
2022/05/09 01:35:16;;;;;;;24.17;4.57;;;;;;;29.01;16.30;100450.31;4964824;28;20070;-60
2022/05/09 01:37:47;;;;;;;21.00;3.95;;;;;;;27.77;17.22;100444.88;4970292;28;20118;-58
2022/05/09 01:40:15;;;;;;;15.45;3.60;;;;;;;27.83;16.42;100434.94;4974127;28;20026;-58
2022/05/09 01:42:43;;;;;;;15.93;3.70;;;;;;;28.12;16.28;100438.72;4941000;28;20086;-59
2022/05/09 01:45:12;;;;;;;14.68;3.47;;;;;;;27.76;17.00;100454.44;4967861;28;20054;-57
2022/05/09 01:50:24;;;;;;;24.90;4.25;;;;;;;27.38;17.84;100454.53;4958163;28;20035;-57
2022/05/09 01:52:51;;;;;;;22.08;4.22;;;;;;;27.06;17.94;100472.94;4970489;28;20055;-58
2022/05/09 01:55:19;;;;;;;19.88;4.40;;;;;;;26.97;17.93;100492.75;4962954;28;20035;-58
2022/05/09 01:57:46;;;;;;;20.58;4.10;;;;;;;26.79;18.28;100467.44;4963716;28;20106;-59
2022/05/09 02:00:13;;;;;;;20.25;4.93;;;;;;;26.66;18.58;100462.50;4970829;28;20120;-59
2022/05/09 02:02:43;;;;;;;22.95;4.07;;;;;;;26.53;18.13;100464.72;4959661;28;20038;-58
2022/05/09 02:05:10;;;;;;;20.98;4.28;;;;;;;26.42;18.23;100483.31;4966373;28;20039;-58
2022/05/09 02:07:37;;;;;;;19.80;3.75;;;;;;;26.24;18.34;100476.66;4969918;28;20029;-58
2022/05/09 02:10:04;;;;;;;22.38;4.63;;;;;;;26.07;18.25;100472.44;4973758;28;20533;-58
2022/05/09 02:12:31;;;;;;;14.15;4.05;;;;;;;25.87;18.56;100468.97;4940933;28;20032;-58
2022/05/09 02:15:00;;;;;;;25.77;4.47;;;;;;;25.88;18.32;100490.88;4968443;28;20106;-58
2022/05/09 02:17:29;;;;;;;19.23;4.10;;;;;;;25.69;18.75;100468.69;4963094;28;20045;-59
2022/05/09 02:19:55;;;;;;;18.75;4.88;;;;;;;25.58;19.04;100468.47;4961006;28;20023;-57
2022/05/09 02:22:22;;;;;;;17.15;3.95;;;;;;;25.42;19.56;100476.16;4970272;28;20035;-57
2022/05/09 02:24:49;;;;;;;19.58;4.82;;;;;;;25.39;19.25;100460.22;4958019;28;20035;-57
2022/05/09 02:27:17;;;;;;;22.90;3.97;;;;;;;25.33;19.15;100489.53;4966174;28;20067;-57
2022/05/09 02:29:44;;;;;;;15.35;3.58;;;;;;;25.22;19.57;100483.75;4965094;28;20046;-57
2022/05/09 02:32:13;;;;;;;15.35;3.63;;;;;;;25.16;19.39;100501.13;4959030;28;20466;-58
2022/05/09 02:34:40;;;;;;;16.50;3.95;;;;;;;25.02;19.87;100500.84;4964669;28;20043;-58
2022/05/09 02:37:06;;;;;;;12.10;3.72;;;;;;;24.80;20.00;100500.41;4969729;28;20023;-57
2022/05/09 02:39:33;;;;;;;15.20;4.80;;;;;;;24.74;20.24;100512.97;4973501;28;20489;-58
2022/05/09 02:42:00;;;;;;;20.02;4.10;;;;;;;24.63;20.41;100518.31;4960494;28;20031;-58
2022/05/09 02:44:28;;;;;;;17.58;4.03;;;;;;;24.61;20.35;100528.19;4969922;28;20140;-57
2022/05/09 02:46:55;;;;;;;25.35;6.40;;;;;;;24.51;20.67;100537.88;4958689;28;20066;-57
2022/05/09 02:49:22;;;;;;;32.08;7.38;;;;;;;24.30;21.27;100546.56;4965482;28;20039;-57
2022/05/09 02:51:51;;;;;;;20.42;5.78;;;;;;;24.13;21.91;100554.44;4965673;28;20469;-58
2022/05/09 02:54:18;;;;;;;26.15;6.38;;;;;;;23.94;22.32;100558.75;4957763;28;20114;-59
2022/05/09 02:56:45;;;;;;;36.45;7.78;;;;;;;23.86;22.65;100561.69;4969811;28;20098;-58
2022/05/09 02:59:12;;;;;;;27.15;7.82;;;;;;;23.79;22.68;100565.09;4960848;28;20030;-60
2022/05/09 03:01:39;;;;;;;33.58;5.95;;;;;;;23.68;22.75;100566.78;4962704;28;20043;-60
2022/05/09 03:06:52;;;;;;;29.60;4.55;;;;;;;23.54;23.35;100570.00;4943236;28;20034;-58
2022/05/09 03:09:19;;;;;;;24.33;4.85;;;;;;;23.46;23.70;100573.72;4973294;28;20030;-58
2022/05/09 03:11:45;;;;;;;23.70;4.80;;;;;;;23.41;23.90;100591.44;4961982;28;20083;-59
2022/05/09 03:14:12;;;;;;;17.08;4.25;;;;;;;23.31;23.97;100580.84;4968698;28;20050;-58
2022/05/09 03:16:39;;;;;;;23.45;4.65;;;;;;;23.26;24.00;100581.09;4957212;28;20545;-57
2022/05/09 03:19:06;;;;;;;18.15;4.05;;;;;;;23.33;23.64;100599.88;4967205;28;20043;-58
2022/05/09 03:21:32;;;;;;;14.88;4.05;;;;;;;23.35;23.64;100586.50;4963597;28;20043;-57
2022/05/09 03:23:59;;;;;;;19.25;5.47;;;;;;;23.32;23.48;100592.72;4946195;29;20031;-57
2022/05/09 03:26:26;;;;;;;19.98;4.55;;;;;;;23.24;23.49;100596.47;4973205;28;20034;-58
2022/05/09 03:28:53;;;;;;;18.05;4.82;;;;;;;23.29;23.46;100604.53;4961470;28;20023;-57
2022/05/09 03:31:20;;;;;;;16.23;4.55;;;;;;;23.07;24.39;100608.66;4968724;28;20117;-58
2022/05/09 03:33:46;;;;;;;13.10;3.90;;;;;;;22.91;24.75;100614.16;4965091;28;20034;-57
2022/05/09 03:36:13;;;;;;;18.70;4.43;;;;;;;22.82;24.79;100619.03;4972022;28;20142;-58
2022/05/09 03:38:40;;;;;;;18.30;4.10;;;;;;;22.74;25.08;100625.47;4972620;28;20022;-58
2022/05/09 03:41:07;;;;;;;18.60;4.43;;;;;;;22.68;24.80;100618.56;4970221;28;20405;-58
2022/05/09 03:43:34;;;;;;;29.27;4.50;;;;;;;22.60;24.97;100626.63;4966492;28;20050;-58
2022/05/09 03:46:01;;;;;;;14.98;3.92;;;;;;;22.48;25.03;100621.13;4963011;28;20415;-58
2022/05/09 03:48:28;;;;;;;16.55;4.18;;;;;;;22.45;25.20;100626.56;4972667;28;20069;-58
2022/05/09 03:50:56;;;;;;;17.98;4.80;;;;;;;22.27;26.08;100632.31;4961304;28;20034;-58
2022/05/09 03:53:25;;;;;;;17.05;4.38;;;;;;;22.18;26.18;100633.56;4967191;28;20039;-59
2022/05/09 03:55:53;;;;;;;18.90;4.35;;;;;;;22.06;26.59;100634.38;4950909;28;20038;-59
2022/05/09 03:58:20;;;;;;;17.40;4.00;;;;;;;21.94;26.62;100640.69;4942799;28;20090;-59
2022/05/09 04:00:47;;;;;;;22.40;5.03;;;;;;;21.83;27.10;100647.78;4943792;28;20054;-60
2022/05/09 04:03:14;;;;;;;23.15;4.97;;;;;;;21.78;27.26;100653.53;4968769;28;20047;-59
2022/05/09 04:05:44;;;;;;;17.38;4.85;;;;;;;21.68;26.97;100660.31;4947092;29;20047;-59
2022/05/09 04:08:16;;;;;;;26.25;5.82;;;;;;;21.70;27.09;100651.66;4959964;28;20035;-59
2022/05/09 04:10:45;;;;;;;21.80;5.60;;;;;;;21.62;26.88;100653.38;4972360;28;20138;-59
2022/05/09 04:13:13;;;;;;;20.38;6.50;;;;;;;21.53;27.09;100651.84;4963073;28;20034;-59
2022/05/09 04:18:36;;;;;;;23.30;6.32;;;;;;;21.60;26.43;100652.09;4964175;28;20040;-60
2022/05/09 04:21:04;;;;;;;26.40;5.78;;;;;;;21.67;25.97;100647.63;4968578;28;20129;-60
2022/05/09 04:23:31;;;;;;;19.95;5.70;;;;;;;21.68;25.92;100654.78;4965423;28;20019;-58
2022/05/09 04:25:58;;;;;;;36.92;9.80;;;;;;;21.62;25.74;100666.41;4962512;28;20069;-57
2022/05/09 04:28:25;;;;;;;42.30;7.70;;;;;;;21.59;25.53;100656.84;4971968;28;20027;-58
2022/05/09 04:30:58;;;;;;;34.38;8.43;;;;;;;21.53;25.58;100668.44;4960262;28;20049;-57
2022/05/09 04:33:25;;;;;;;40.70;8.00;;;;;;;21.40;25.35;100665.63;4965396;28;20031;-57
2022/05/09 04:35:54;;;;;;;58.72;10.13;;;;;;;21.33;25.66;100662.59;4950855;28;20046;-58
2022/05/09 04:38:23;;;;;;;49.50;9.65;;;;;;;21.27;25.52;100666.72;4971322;28;20094;-58
2022/05/09 04:40:54;;;;;;;37.78;8.77;;;;;;;21.25;25.32;100662.69;4942827;28;20090;-57
2022/05/09 04:43:28;;;;;;;33.45;8.23;;;;;;;21.19;25.64;100664.81;4973119;28;20031;-58
2022/05/09 04:45:58;;;;;;;45.33;7.57;;;;;;;21.14;25.85;100676.06;4962681;28;20070;-59
2022/05/09 04:48:25;;;;;;;31.48;6.30;;;;;;;21.08;26.38;100672.69;4971607;28;20281;-58
2022/05/09 04:50:52;;;;;;;41.47;6.50;;;;;;;20.95;27.28;100678.47;4959945;28;20117;-58
2022/05/09 04:53:19;;;;;;;40.33;6.70;;;;;;;20.75;28.32;100683.63;4967183;28;20114;-59
2022/05/09 04:55:46;;;;;;;49.63;7.15;;;;;;;20.68;28.58;100680.59;4966605;28;20413;-58
2022/05/09 04:58:15;;;;;;;39.28;7.57;;;;;;;20.64;29.65;100682.38;4959950;28;20039;-58
2022/05/09 05:00:43;;;;;;;52.90;8.02;;;;;;;20.47;30.88;100696.31;4971244;28;20390;-59
2022/05/09 05:03:10;;;;;;;36.78;6.07;;;;;;;20.33;31.72;100688.22;4958091;28;20042;-57
2022/05/09 05:05:37;;;;;;;38.50;5.90;;;;;;;20.32;31.75;100694.88;4964535;28;20392;-58
2022/05/09 05:08:05;;;;;;;31.67;5.93;;;;;;;20.26;32.00;100690.66;4970719;28;20035;-59
2022/05/09 05:10:31;;;;;;;36.30;5.82;;;;;;;20.11;32.59;100700.31;4973199;28;20034;-58
2022/05/09 05:13:02;;;;;;;32.25;5.95;;;;;;;20.03;32.98;100701.13;4960316;28;21446;-59
2022/05/09 05:15:31;;;;;;;33.45;7.07;;;;;;;19.93;33.27;100707.00;4966291;28;20484;-57
2022/05/09 05:17:58;;;;;;;49.33;7.28;;;;;;;19.82;33.50;100700.19;4961638;28;20038;-59
2022/05/09 05:20:25;;;;;;;44.90;7.43;;;;;;;19.81;34.04;100695.81;4954031;28;20073;-59
2022/05/09 05:22:52;;;;;;;34.90;6.78;;;;;;;19.81;33.71;100691.13;4959223;28;20031;-58
2022/05/09 05:25:26;;;;;;;32.72;6.90;;;;;;;19.73;34.09;100705.72;4966603;28;20118;-58
2022/05/09 05:27:54;;;;;;;36.53;6.43;;;;;;;19.81;33.78;100709.63;4962893;28;20074;-58
2022/05/09 05:30:21;;;;;;;33.53;6.63;;;;;;;19.81;33.66;100718.69;4966494;28;20035;-58
2022/05/09 05:32:48;;;;;;;37.20;5.88;;;;;;;19.84;34.01;100714.47;4943270;28;20084;-57
2022/05/09 05:35:19;;;;;;;30.23;5.32;;;;;;;19.69;34.28;100713.03;4965792;28;20068;-57
2022/05/09 05:37:46;;;;;;;34.33;5.55;;;;;;;19.71;33.75;100716.25;4970454;28;20077;-58
2022/05/09 05:40:14;;;;;;;31.75;4.65;;;;;;;19.64;34.22;100709.63;4974162;28;20097;-58
2022/05/09 05:42:44;;;;;;;23.10;4.90;;;;;;;19.66;33.57;100713.69;4958159;28;20046;-59
2022/05/09 05:45:13;;;;;;;32.83;5.18;;;;;;;19.65;33.92;100714.00;4967208;28;20106;-59
2022/05/09 05:47:43;;;;;;;21.52;4.25;;;;;;;19.59;33.88;100716.13;4948283;28;20042;-60
2022/05/09 05:50:13;;;;;;;24.42;4.80;;;;;;;19.52;34.10;100711.06;4959541;28;20078;-58
2022/05/09 05:52:39;;;;;;;23.33;4.93;;;;;;;19.49;34.28;100714.47;4970652;28;20054;-59
2022/05/09 05:55:07;;;;;;;23.17;4.22;;;;;;;19.48;33.93;100714.81;4960711;28;20035;-58
2022/05/09 05:57:38;;;;;;;16.67;3.85;;;;;;;19.47;34.43;100724.22;4963726;28;20029;-58
2022/05/09 06:00:15;;;;;;;18.30;4.07;;;;;;;19.32;34.98;100719.97;4968391;28;20034;-57
2022/05/09 06:02:44;;;;;;;22.13;4.65;;;;;;;19.29;34.93;100720.63;4954408;28;20051;-58
2022/05/09 06:05:13;;;;;;;19.95;4.60;;;;;;;19.28;34.54;100713.50;4956758;28;20031;-58
2022/05/09 06:07:43;;;;;;;17.92;3.97;;;;;;;19.25;34.64;100711.41;4936684;29;20045;-59
2022/05/09 06:10:12;;;;;;;27.05;4.53;;;;;;;19.24;33.95;100724.38;4946604;28;20040;-60
2022/05/09 06:12:39;;;;;;;19.23;4.13;;;;;;;19.26;34.05;100724.84;4937667;28;20502;-58
2022/05/09 06:17:53;;;;;;;17.65;4.07;;;;;;;19.35;33.45;100719.31;4953672;28;20039;-59
2022/05/09 06:20:22;;;;;;;18.10;4.30;;;;;;;19.30;33.16;100722.25;4956205;28;20023;-59
2022/05/09 06:22:49;;;;;;;16.42;3.75;;;;;;;19.26;33.55;100722.09;4958641;28;20027;-58
2022/05/09 06:25:18;;;;;;;17.80;4.25;;;;;;;19.28;33.51;100727.28;4966174;28;20110;-60
2022/05/09 06:27:46;;;;;;;22.15;3.88;;;;;;;19.21;33.63;100725.00;4954968;28;20051;-58
2022/05/09 06:30:15;;;;;;;19.92;3.80;;;;;;;19.23;33.43;100731.00;4962448;28;20469;-59
2022/05/09 06:32:43;;;;;;;17.27;3.85;;;;;;;19.17;33.63;100712.19;4964936;28;20035;-58
2022/05/09 06:35:20;;;;;;;14.07;3.50;;;;;;;19.08;34.28;100720.44;4964264;28;20110;-59
2022/05/09 06:37:54;;;;;;;16.52;4.50;;;;;;;18.95;34.16;100724.97;4957525;28;20257;-60
2022/05/09 06:40:21;;;;;;;16.03;3.97;;;;;;;18.94;34.28;100728.03;4965456;28;20038;-59
2022/05/09 06:42:51;;;;;;;16.42;3.63;;;;;;;18.93;33.56;100726.41;4962565;28;20273;-58
2022/05/09 06:45:18;;;;;;;17.83;3.55;;;;;;;18.85;33.50;100733.53;4952342;29;20481;-60
2022/05/09 06:47:50;;;;;;;15.07;3.90;;;;;;;18.84;33.49;100734.63;4953333;28;20035;-59
2022/05/09 06:50:19;;;;;;;12.40;3.30;;;;;;;18.81;33.31;100732.53;4961493;28;20035;-58
2022/05/09 06:52:46;;;;;;;18.48;3.75;;;;;;;18.79;33.21;100729.28;4958028;28;20031;-59
2022/05/09 06:55:14;;;;;;;11.05;2.90;;;;;;;18.76;33.49;100738.19;4961680;28;20122;-59
2022/05/09 06:57:43;;;;;;;12.93;3.30;;;;;;;18.74;33.60;100737.69;4949851;28;20371;-60
2022/05/09 07:00:17;;;;;;;10.60;2.80;;;;;;;18.70;33.23;100737.53;4961999;28;20478;-59
2022/05/09 07:02:44;;;;;;;14.63;3.47;;;;;;;18.68;33.51;100733.47;4961118;28;20472;-60
2022/05/09 07:05:13;;;;;;;19.42;3.75;;;;;;;18.62;33.34;100741.00;4959783;28;20393;-58
2022/05/09 07:07:42;;;;;;;15.07;3.28;;;;;;;18.57;33.78;100735.66;4969446;28;20404;-60
2022/05/09 07:10:09;;;;;;;13.25;3.25;;;;;;;18.60;33.60;100731.47;4968872;28;20029;-59
2022/05/09 07:12:49;;;;;;;13.80;3.50;;;;;;;18.53;33.70;100726.44;4966509;28;20615;-59
2022/05/09 07:15:28;;;;;;;12.93;3.78;;;;;;;18.59;33.04;100735.34;4965335;28;20050;-57
2022/05/09 07:17:58;;;;;;;13.52;3.42;;;;;;;18.52;33.41;100735.00;4958083;28;20031;-59
2022/05/09 07:20:27;;;;;;;13.27;3.50;;;;;;;18.43;33.06;100744.00;4959959;28;20023;-58
2022/05/09 07:22:58;;;;;;;16.38;3.40;;;;;;;18.39;33.04;100732.03;4961845;28;20041;-58
2022/05/09 07:25:25;;;;;;;17.40;3.72;;;;;;;18.41;32.67;100724.25;4967227;28;20424;-59
2022/05/09 07:27:53;;;;;;;13.88;2.90;;;;;;;18.43;32.48;100718.44;4964749;28;20038;-59
2022/05/09 07:30:22;;;;;;;12.45;3.30;;;;;;;18.43;32.10;100711.00;4947477;29;20046;-58
2022/05/09 07:32:52;;;;;;;12.20;3.10;;;;;;;18.42;32.42;100719.56;4957937;28;20540;-58
2022/05/09 07:35:19;;;;;;;15.10;3.42;;;;;;;18.49;31.70;100713.59;4965013;28;20039;-58
2022/05/09 07:37:47;;;;;;;9.45;3.10;;;;;;;18.61;31.26;100724.81;4961702;28;20114;-58
2022/05/09 07:40:16;;;;;;;8.55;2.90;;;;;;;18.63;30.54;100703.31;4956897;28;20032;-58
2022/05/09 07:42:46;;;;;;;12.23;3.42;;;;;;;18.77;29.58;100701.25;4972686;28;20038;-58
2022/05/09 07:45:17;;;;;;;10.80;2.95;;;;;;;18.75;29.35;100706.28;4955921;28;20034;-59
2022/05/09 07:47:44;;;;;;;14.48;3.40;;;;;;;18.79;29.42;100718.28;4964318;28;20528;-58
2022/05/09 07:50:13;;;;;;;14.15;3.10;;;;;;;18.69;29.33;100702.88;4965978;28;20098;-59
2022/05/09 07:52:44;;;;;;;10.27;2.90;;;;;;;18.68;29.39;100700.44;4963447;28;20038;-58
2022/05/09 07:55:13;;;;;;;9.93;3.35;;;;;;;18.62;29.82;100707.19;4963088;28;20362;-58
2022/05/09 07:57:40;;;;;;;11.45;2.88;;;;;;;18.55;30.41;100699.41;4964869;28;20481;-59
2022/05/09 08:00:07;;;;;;;12.13;2.75;;;;;;;18.45;30.85;100690.59;4970359;28;20038;-59
2022/05/09 08:02:34;;;;;;;15.77;3.50;;;;;;;18.34;30.78;100690.91;4959567;28;20489;-59
2022/05/09 08:05:01;;;;;;;23.65;4.03;;;;;;;18.29;31.08;100679.22;4967674;28;20054;-59
2022/05/09 08:07:28;;;;;;;22.95;3.60;;;;;;;18.29;30.85;100673.72;4966356;28;20374;-58
2022/05/09 08:09:54;;;;;;;18.85;3.72;;;;;;;18.34;30.47;100679.09;4968393;28;20039;-59
2022/05/09 08:12:21;;;;;;;30.40;3.83;;;;;;;18.31;30.58;100671.44;4959036;28;20027;-58
2022/05/09 08:14:49;;;;;;;23.85;3.90;;;;;;;18.34;29.86;100670.84;4971969;28;20047;-59
2022/05/09 08:17:18;;;;;;;15.63;3.75;;;;;;;18.41;29.29;100671.19;4963918;28;20062;-58
2022/05/09 08:19:45;;;;;;;13.82;3.35;;;;;;;18.43;28.74;100666.97;4947260;29;20031;-58
2022/05/09 08:22:13;;;;;;;18.50;3.55;;;;;;;18.49;28.99;100669.56;4971211;28;20166;-57
2022/05/09 08:24:40;;;;;;;15.98;3.60;;;;;;;18.43;28.43;100666.97;4942752;28;20040;-58
2022/05/09 08:27:06;;;;;;;15.40;2.97;;;;;;;18.54;28.10;100666.69;4969414;28;20030;-58
2022/05/09 08:29:34;;;;;;;17.25;3.10;;;;;;;18.52;28.07;100666.19;4965794;28;20043;-59
2022/05/09 08:32:01;;;;;;;11.98;2.45;;;;;;;18.35;28.65;100665.00;4962362;28;20042;-59
2022/05/09 08:34:28;;;;;;;16.55;3.30;;;;;;;18.33;28.79;100667.28;4963531;28;20118;-59
2022/05/09 08:36:55;;;;;;;14.82;3.10;;;;;;;18.30;29.18;100669.81;4953802;28;20032;-57
2022/05/09 08:39:26;;;;;;;12.02;3.13;;;;;;;18.27;28.55;100657.53;4947159;28;20035;-58
2022/05/09 08:42:03;;;;;;;11.93;2.78;;;;;;;18.50;27.16;100660.22;4963081;28;20405;-59
2022/05/09 08:45:06;;;;;;;10.82;2.60;;;;;;;18.65;26.03;100649.56;4971951;28;20121;-58
2022/05/09 08:47:44;;;;;;;9.13;2.63;;;;;;;18.67;26.06;100663.00;4955509;28;20043;-59
2022/05/09 08:50:14;;;;;;;8.95;2.33;;;;;;;18.54;25.82;100672.19;4970577;28;20390;-57
2022/05/09 08:52:49;;;;;;;7.72;2.70;;;;;;;19.02;24.10;100650.09;4958941;28;20405;-59
2022/05/09 08:55:23;;;;;;;6.70;2.23;;;;;;;18.88;24.15;100650.28;4967620;28;20063;-58
2022/05/09 08:58:00;;;;;;;9.02;2.30;;;;;;;18.86;24.18;100647.03;4967716;28;20643;-58
2022/05/09 09:00:31;;;;;;;8.02;2.47;;;;;;;18.84;24.55;100654.78;4958685;28;20035;-58
2022/05/09 09:03:02;;;;;;;8.23;2.17;;;;;;;18.58;26.47;100645.66;4969734;28;20090;-58
2022/05/09 09:05:34;;;;;;;13.90;2.50;;;;;;;18.41;27.40;100663.72;4964250;28;20085;-59
2022/05/09 09:08:37;;;;;;;14.60;2.85;;;;;;;18.20;28.08;100650.88;4963905;28;20489;-58
2022/05/09 09:11:13;;;;;;;8.43;2.25;;;;;;;18.03;28.77;100646.09;4933391;28;20051;-59
2022/05/09 09:14:11;;;;;;;9.10;2.45;;;;;;;17.90;29.46;100658.81;4964187;28;20035;-57
2022/05/09 09:16:47;;;;;;;11.60;2.70;;;;;;;17.74;29.17;100661.13;4912563;28;20047;-58
2022/05/09 09:19:38;;;;;;;11.00;2.33;;;;;;;17.80;28.36;100661.84;4967246;28;20039;-58
2022/05/09 09:22:19;;;;;;;7.32;2.35;;;;;;;17.93;26.88;100651.84;4968978;28;20501;-58
2022/05/09 09:25:13;;;;;;;9.85;2.65;;;;;;;18.11;26.00;100648.06;4942507;28;20043;-58
2022/05/09 09:27:47;;;;;;;9.02;2.50;;;;;;;18.37;24.93;100659.19;4946327;28;20035;-58
2022/05/09 09:30:25;;;;;;;11.90;2.83;;;;;;;18.38;25.84;100669.88;4970197;28;20034;-59
2022/05/09 09:32:59;;;;;;;8.88;2.65;;;;;;;18.31;26.45;100666.78;4944217;28;20450;-57
2022/05/09 09:35:31;;;;;;;8.50;3.08;;;;;;;18.31;26.75;100686.03;4965616;28;20485;-57
2022/05/09 09:38:22;;;;;;;9.23;4.10;;;;;;;18.26;27.03;100690.84;4962306;28;20090;-59
2022/05/09 09:40:50;;;;;;;22.73;15.57;;;;;;;18.10;27.46;100684.94;4943324;28;20079;-59
2022/05/09 09:43:18;;;;;;;54.00;39.97;;;;;;;18.00;28.08;100686.03;4966599;28;20594;-56
2022/05/09 09:45:54;;;;;;;87.65;69.15;;;;;;;17.93;28.08;100687.59;4966018;28;20043;-58
2022/05/09 09:48:22;;;;;;;80.05;57.20;;;;;;;17.91;28.31;100687.09;4958130;28;20449;-58
2022/05/09 09:50:55;;;;;;;60.75;44.42;;;;;;;17.83;28.51;100685.13;4943238;28;20078;-59
2022/05/09 09:53:38;;;;;;;55.05;45.72;;;;;;;17.65;28.63;100682.25;4965874;28;20371;-59
2022/05/09 09:56:31;;;;;;;14.52;8.98;;;;;;;17.60;28.33;100693.38;4968643;28;20058;-58
2022/05/09 09:59:09;;;;;;;15.00;9.13;;;;;;;17.47;28.78;100702.47;4945526;28;20046;-59
2022/05/09 10:01:36;;;;;;;23.25;12.23;;;;;;;17.43;28.80;100704.22;4963750;28;20047;-57
2022/05/09 10:04:09;;;;;;;52.45;32.83;;;;;;;17.45;28.56;100691.00;4962586;28;20035;-58
2022/05/09 10:07:07;;;;;;;61.00;35.08;;;;;;;17.34;28.52;100695.09;4970680;28;20407;-59
2022/05/09 10:09:44;;;;;;;34.10;20.13;;;;;;;17.24;28.80;100707.13;4956622;28;20051;-59
2022/05/09 10:12:22;;;;;;;13.65;5.88;;;;;;;17.24;28.84;100709.06;4959110;28;20063;-59
2022/05/09 10:14:51;;;;;;;11.80;3.92;;;;;;;17.07;29.15;100701.50;4942691;28;20046;-59
2022/05/09 10:17:26;;;;;;;15.32;4.05;;;;;;;16.96;28.85;100695.41;4966248;28;20035;-58
2022/05/09 10:19:56;;;;;;;7.40;2.97;;;;;;;17.00;28.86;100717.56;4966727;28;20041;-58
2022/05/09 10:25:33;;;;;;;9.48;3.13;;;;;;;16.82;28.82;100711.06;4964234;28;20122;-58
2022/05/09 10:28:13;;;;;;;9.40;2.50;;;;;;;16.92;28.64;100716.34;4967818;28;20413;-59
2022/05/09 10:30:46;;;;;;;11.98;3.00;;;;;;;16.85;28.84;100704.97;4957776;28;20039;-59
2022/05/09 10:33:40;;;;;;;8.82;3.00;;;;;;;16.97;28.45;100698.94;4969663;28;20079;-58
2022/05/09 10:36:21;;;;;;;6.68;3.00;;;;;;;16.81;28.36;100698.47;4967346;28;20038;-58
2022/05/09 10:39:08;;;;;;;20.55;3.35;;;;;;;16.90;27.32;100691.16;4948770;28;20038;-59
2022/05/09 10:41:42;;;;;;;28.52;3.70;;;;;;;17.03;27.08;100681.25;4967470;28;20093;-59
2022/05/09 10:44:15;;;;;;;9.10;2.88;;;;;;;17.07;26.39;100663.84;4972710;28;20035;-57
2022/05/09 10:46:52;;;;;;;9.93;2.70;;;;;;;17.09;25.98;100680.84;4945141;28;20034;-58
2022/05/09 10:49:33;;;;;;;10.25;2.88;;;;;;;17.01;25.69;100683.47;4970590;28;20045;-60
2022/05/09 10:52:11;;;;;;;7.18;2.17;;;;;;;17.10;25.10;100687.94;4972481;28;20476;-59
2022/05/09 10:55:02;;;;;;;12.65;3.00;;;;;;;16.97;25.51;100702.50;4962871;28;20134;-59
2022/05/09 10:57:39;;;;;;;8.02;2.60;;;;;;;16.90;25.56;100696.63;4967901;28;20039;-57
2022/05/09 11:00:20;;;;;;;13.35;2.58;;;;;;;16.91;25.48;100701.81;4971597;28;20110;-58
2022/05/09 11:03:16;;;;;;;10.18;2.72;;;;;;;17.08;25.04;100719.59;4945455;28;20039;-58
2022/05/09 11:06:18;;;;;;;7.97;2.63;;;;;;;17.00;24.55;100718.34;4968986;28;20042;-58
2022/05/09 11:08:50;;;;;;;6.70;2.30;;;;;;;16.94;24.27;100702.31;4960778;28;20041;-58
2022/05/09 11:11:28;;;;;;;5.55;2.35;;;;;;;17.00;24.01;100704.63;4977115;28;20045;-58
2022/05/09 11:14:00;;;;;;;8.20;2.70;;;;;;;17.20;23.89;100717.09;4946972;29;20109;-58
2022/05/09 11:16:50;;;;;;;6.32;2.47;;;;;;;17.45;22.92;100718.47;4973591;28;20497;-57
2022/05/09 11:19:34;;;;;;;7.85;2.50;;;;;;;17.35;22.97;100713.19;4918618;28;20047;-58
2022/05/09 11:22:26;;;;;;;8.90;2.50;;;;;;;17.23;23.42;100716.47;4963402;28;20118;-56
2022/05/09 11:25:14;;;;;;;8.65;2.67;;;;;;;17.00;23.73;100723.84;4946696;28;20038;-57
2022/05/09 11:27:49;;;;;;;9.13;2.30;;;;;;;17.24;22.88;100729.13;4966143;28;20406;-59
2022/05/09 11:30:31;;;;;;;5.75;1.90;;;;;;;17.23;22.50;100721.97;4972703;28;20038;-58
2022/05/09 11:33:30;;;;;;;6.13;1.88;;;;;;;17.38;22.44;100729.84;4947955;28;20049;-58
2022/05/09 11:36:20;;;;;;;6.28;2.50;;;;;;;17.41;22.46;100733.91;4955963;28;20054;-57
2022/05/09 11:39:07;;;;;;;5.10;2.13;;;;;;;17.53;22.40;100731.44;4944861;28;20042;-59
2022/05/09 11:45:13;;;;;;;8.98;2.20;;;;;;;17.11;24.33;100725.25;4875867;28;20130;-57
2022/05/09 11:48:15;;;;;;;6.78;2.70;;;;;;;17.25;24.99;100730.72;4965680;28;20038;-58
2022/05/09 11:51:01;;;;;;;5.00;2.03;;;;;;;17.15;25.89;100726.25;4956257;28;20035;-58
2022/05/09 11:53:33;;;;;;;6.53;2.35;;;;;;;17.18;26.83;100728.38;4965757;28;20031;-58
2022/05/09 11:56:05;;;;;;;7.00;2.78;;;;;;;17.14;27.81;100730.13;4962918;28;20050;-58
2022/05/09 11:58:37;;;;;;;9.90;2.40;;;;;;;17.05;28.38;100731.97;4972524;28;20038;-58